Time;durP1;ratioP1;P1;durP2;ratioP2;P2;SDS_P1;SDS_P2;PMS_P1;PMS_P2;Temp;Humidity;BMP_temperature;BMP_pressure;BME280_temperature;BME280_humidity;BME280_pressure;Samples;Min_cycle;Max_cycle;Signal;HPM_P1;HPM_P2
2021/06/30 00:00:11;;;;;;;9.30;6.00;;;;;;;21.48;74.47;99733.81;5028971;28;20506;-78
2021/06/30 00:02:37;;;;;;;7.85;7.15;;;;;;;21.51;74.39;99743.50;5028201;28;20423;-78
2021/06/30 00:05:04;;;;;;;7.93;6.93;;;;;;;21.50;74.95;99737.28;5026414;28;20091;-78
2021/06/30 00:07:29;;;;;;;8.90;8.00;;;;;;;21.42;75.60;99745.81;5026784;28;20084;-78
2021/06/30 00:09:55;;;;;;;7.85;7.15;;;;;;;21.39;76.15;99750.53;5032536;28;20033;-78
2021/06/30 00:12:20;;;;;;;8.40;7.60;;;;;;;21.38;76.20;99744.31;5031130;28;20110;-78
2021/06/30 00:14:46;;;;;;;10.80;7.35;;;;;;;21.33;76.54;99745.53;5026779;28;20060;-78
2021/06/30 00:17:12;;;;;;;9.02;7.68;;;;;;;21.37;76.11;99742.53;5027966;28;20056;-78
2021/06/30 00:19:38;;;;;;;10.68;8.68;;;;;;;21.36;78.46;99740.81;5028123;28;20025;-78
2021/06/30 00:22:03;;;;;;;14.90;10.32;;;;;;;21.18;78.64;99744.66;5025955;28;20038;-78
2021/06/30 00:24:29;;;;;;;12.07;10.63;;;;;;;21.02;80.15;99737.56;5043457;28;20069;-78
2021/06/30 00:26:54;;;;;;;11.55;8.75;;;;;;;20.94;79.92;99736.31;5028533;28;20037;-78
2021/06/30 00:29:20;;;;;;;9.63;8.60;;;;;;;20.86;80.48;99731.44;5026289;28;20069;-78
2021/06/30 00:31:47;;;;;;;13.00;10.63;;;;;;;20.71;82.07;99735.91;5028522;28;20115;-78
2021/06/30 00:34:12;;;;;;;13.32;11.30;;;;;;;20.57;84.13;99735.88;5029033;28;20044;-78
2021/06/30 00:36:46;;;;;;;18.92;13.25;;;;;;;20.43;85.65;99739.34;5028446;28;20424;-78
2021/06/30 00:39:12;;;;;;;17.80;14.68;;;;;;;20.27;87.19;99736.72;5031700;28;20048;-79
2021/06/30 00:41:38;;;;;;;25.33;19.38;;;;;;;20.06;90.01;99744.19;5035991;28;20504;-79
2021/06/30 00:44:04;;;;;;;21.30;15.35;;;;;;;20.02;90.41;99737.28;5034544;28;20044;-79
2021/06/30 00:46:32;;;;;;;25.50;19.40;;;;;;;19.83;92.04;99736.59;5031107;28;20033;-81
2021/06/30 00:48:58;;;;;;;39.60;26.83;;;;;;;19.62;95.64;99739.53;5034962;28;20034;-81
2021/06/30 00:51:24;;;;;;;36.83;25.67;;;;;;;19.62;95.93;99734.19;5029225;28;20404;-80
2021/06/30 00:53:52;;;;;;;27.50;22.75;;;;;;;19.54;96.05;99733.72;5050547;28;20030;-81
2021/06/30 00:56:22;;;;;;;27.15;22.17;;;;;;;19.45;97.08;99747.63;5034203;28;20041;-80
2021/06/30 00:58:53;;;;;;;24.48;17.02;;;;;;;19.34;96.12;99747.38;5034389;28;20025;-80
2021/06/30 01:01:20;;;;;;;24.10;14.80;;;;;;;19.23;96.66;99758.63;5036111;28;20041;-80
2021/06/30 01:03:47;;;;;;;25.90;18.10;;;;;;;19.15;97.83;99748.38;5046887;28;20040;-80
2021/06/30 01:06:13;;;;;;;18.42;16.40;;;;;;;19.12;97.66;99761.88;5030342;28;20097;-80
2021/06/30 01:08:38;;;;;;;22.10;18.27;;;;;;;19.07;97.54;99755.06;5033036;28;20053;-80
2021/06/30 01:11:04;;;;;;;18.50;14.00;;;;;;;19.09;97.69;99748.69;5026693;28;20045;-80
2021/06/30 01:13:29;;;;;;;14.90;8.77;;;;;;;18.93;97.22;99745.97;5033351;28;20697;-80
2021/06/30 01:15:55;;;;;;;13.32;10.15;;;;;;;18.78;97.59;99741.41;5045762;28;20046;-80
2021/06/30 01:18:25;;;;;;;19.25;9.77;;;;;;;18.68;97.49;99741.03;5045957;28;20029;-80
2021/06/30 01:20:52;;;;;;;15.85;11.15;;;;;;;18.58;97.76;99747.78;5046372;28;20034;-80
2021/06/30 01:23:19;;;;;;;13.20;9.32;;;;;;;18.50;97.09;99756.19;5032366;28;20021;-80
2021/06/30 01:25:44;;;;;;;13.32;7.78;;;;;;;18.43;97.47;99759.25;5029667;28;20040;-80
2021/06/30 01:28:10;;;;;;;10.43;8.05;;;;;;;18.35;97.28;99760.50;5031128;28;20065;-80
2021/06/30 01:30:36;;;;;;;17.58;8.43;;;;;;;18.34;97.99;99766.81;5032238;28;20037;-80
2021/06/30 01:33:01;;;;;;;18.95;7.82;;;;;;;18.35;97.89;99762.31;5030069;28;20083;-80
2021/06/30 01:35:27;;;;;;;12.68;6.82;;;;;;;18.36;97.53;99766.72;5030176;28;20471;-80
2021/06/30 01:37:53;;;;;;;9.45;7.07;;;;;;;18.31;97.60;99772.31;5031338;28;20041;-80
2021/06/30 01:40:20;;;;;;;11.43;7.35;;;;;;;18.32;97.11;99792.72;5029221;28;20096;-80
2021/06/30 01:42:47;;;;;;;10.95;6.88;;;;;;;18.28;97.45;99795.63;5048505;28;20044;-80
2021/06/30 01:45:13;;;;;;;11.48;5.90;;;;;;;18.33;97.03;99799.78;5043486;28;20443;-79
2021/06/30 01:47:38;;;;;;;11.93;6.47;;;;;;;18.25;96.79;99804.63;5026935;28;20034;-79
2021/06/30 01:50:05;;;;;;;13.98;10.90;;;;;;;18.35;97.71;99805.91;5026893;28;20053;-79
2021/06/30 01:52:31;;;;;;;14.07;10.32;;;;;;;18.49;98.20;99812.38;5028648;28;20038;-79
2021/06/30 01:54:56;;;;;;;11.57;7.22;;;;;;;18.55;97.18;99822.78;5040050;28;20120;-79
2021/06/30 01:57:22;;;;;;;9.90;6.05;;;;;;;18.61;97.66;99825.97;5028626;28;20037;-79
2021/06/30 01:59:47;;;;;;;13.68;7.30;;;;;;;18.62;96.84;99830.38;5025985;28;20026;-79
2021/06/30 02:02:12;;;;;;;11.90;7.32;;;;;;;18.61;96.60;99836.69;5027304;28;20045;-79
2021/06/30 02:04:38;;;;;;;10.38;6.15;;;;;;;18.64;95.79;99843.69;5025026;28;20160;-79
2021/06/30 02:07:03;;;;;;;7.85;5.68;;;;;;;18.47;93.89;99860.56;5026487;28;20038;-80
2021/06/30 02:09:29;;;;;;;13.63;5.22;;;;;;;18.14;94.46;99860.38;5031302;28;20052;-79
2021/06/30 02:11:54;;;;;;;15.57;8.40;;;;;;;17.83;95.91;99858.31;5042753;28;20030;-79
2021/06/30 02:14:20;;;;;;;34.22;14.82;;;;;;;17.59;98.49;99855.81;5029913;28;20071;-81
2021/06/30 02:16:45;;;;;;;23.23;13.85;;;;;;;-145.41;100.00;58600.66;5025320;28;20049;-82
2021/06/30 02:19:11;;;;;;;155.30;23.40;;;;;;;-145.41;100.00;58600.66;5027524;28;20033;-84
2021/06/30 02:21:37;;;;;;;45.00;10.57;;;;;;;-145.41;100.00;58600.66;5024547;28;20095;-84
2021/06/30 02:24:03;;;;;;;17.60;12.55;;;;;;;-145.41;100.00;58600.66;5028698;28;20045;-83
2021/06/30 02:26:30;;;;;;;37.92;12.52;;;;;;;-145.41;100.00;58600.66;5028058;28;20048;-85
2021/06/30 02:28:56;;;;;;;26.92;16.95;;;;;;;-145.41;100.00;58600.66;5026889;28;20037;-82
2021/06/30 02:31:22;;;;;;;38.45;17.80;;;;;;;-145.41;100.00;58600.66;5023750;28;20084;-81
2021/06/30 02:33:47;;;;;;;24.05;13.63;;;;;;;-145.41;100.00;58600.66;5030824;28;20057;-81
2021/06/30 02:36:13;;;;;;;21.90;12.48;;;;;;;-145.41;100.00;58600.66;5025625;28;20480;-81
2021/06/30 02:38:39;;;;;;;16.55;10.43;;;;;;;-145.41;100.00;58600.66;5026402;28;20038;-81
2021/06/30 02:41:04;;;;;;;12.82;11.43;;;;;;;-145.41;100.00;58600.66;5024141;28;20038;-82
2021/06/30 02:43:30;;;;;;;13.35;10.73;;;;;;;-145.41;100.00;58600.66;5025949;28;20404;-80
2021/06/30 02:45:55;;;;;;;11.73;10.07;;;;;;;-145.41;100.00;58600.66;5025609;28;20073;-80
2021/06/30 02:48:21;;;;;;;12.25;10.77;;;;;;;-145.41;100.00;58600.66;5023135;28;20038;-80
2021/06/30 02:50:47;;;;;;;14.13;10.23;;;;;;;-145.41;100.00;58600.66;5040649;28;20033;-81
2021/06/30 02:53:12;;;;;;;13.40;9.77;;;;;;;-145.41;100.00;58600.66;5036412;28;20398;-81
2021/06/30 02:55:37;;;;;;;9.65;8.10;;;;;;;-145.41;100.00;58600.66;5025088;28;20442;-80
2021/06/30 02:58:03;;;;;;;10.75;8.82;;;;;;;-145.41;100.00;58600.66;5035875;28;20147;-80
2021/06/30 03:00:28;;;;;;;17.55;9.88;;;;;;;-145.41;100.00;58600.66;5024024;28;20439;-80
2021/06/30 03:02:54;;;;;;;13.30;8.05;;;;;;;-145.41;100.00;58600.66;5022465;28;20061;-79
2021/06/30 03:05:20;;;;;;;10.00;8.57;;;;;;;-145.41;100.00;58600.66;5037379;28;20435;-81
2021/06/30 03:07:49;;;;;;;17.05;13.93;;;;;;;-145.41;100.00;58600.66;5023873;28;20811;-80
2021/06/30 03:10:15;;;;;;;20.50;16.20;;;;;;;-145.41;100.00;58600.66;5020364;28;20114;-79
2021/06/30 03:12:40;;;;;;;18.58;11.85;;;;;;;-145.41;100.00;58600.66;5025204;28;20037;-81
2021/06/30 03:15:09;;;;;;;11.35;9.80;;;;;;;-145.41;100.00;58600.66;5023895;28;20076;-80
2021/06/30 03:17:35;;;;;;;16.42;12.15;;;;;;;-145.41;100.00;58600.66;5022962;28;20077;-81
2021/06/30 03:20:03;;;;;;;22.48;16.63;;;;;;;-145.41;100.00;58600.66;5034127;28;20029;-81
2021/06/30 03:22:28;;;;;;;11.63;10.05;;;;;;;-145.41;100.00;58600.66;5024130;28;20050;-80
2021/06/30 03:24:54;;;;;;;13.65;11.02;;;;;;;-145.41;100.00;58600.66;5036886;28;20103;-81
2021/06/30 03:27:20;;;;;;;10.98;9.88;;;;;;;-145.41;100.00;58600.66;5032839;28;20037;-81
2021/06/30 03:29:46;;;;;;;13.02;10.90;;;;;;;-145.41;100.00;58600.66;5025929;28;20033;-81
2021/06/30 03:32:11;;;;;;;13.15;10.73;;;;;;;-145.41;100.00;58600.66;5029988;28;20384;-81
2021/06/30 03:34:36;;;;;;;11.65;9.40;;;;;;;-145.41;100.00;58600.66;5039530;28;20222;-81
2021/06/30 03:37:02;;;;;;;11.07;9.32;;;;;;;-145.41;100.00;58600.66;5028422;28;20057;-81
2021/06/30 03:39:27;;;;;;;14.18;9.95;;;;;;;-145.41;100.00;58600.66;5026467;28;20057;-81
2021/06/30 03:41:52;;;;;;;11.10;9.55;;;;;;;-145.41;100.00;58600.66;5041929;28;20045;-81
2021/06/30 03:44:18;;;;;;;14.32;11.18;;;;;;;-145.41;100.00;58600.66;5029091;28;20076;-82
2021/06/30 03:46:43;;;;;;;15.20;11.02;;;;;;;-145.41;100.00;58600.66;5041354;28;20045;-81
2021/06/30 03:49:08;;;;;;;17.25;11.95;;;;;;;-145.41;100.00;58600.66;5012719;28;20057;-82
2021/06/30 03:51:34;;;;;;;17.38;13.68;;;;;;;-145.41;100.00;58600.66;5039628;28;20069;-82
2021/06/30 03:53:59;;;;;;;13.73;9.60;;;;;;;-145.41;100.00;58600.66;5028251;28;20038;-82
2021/06/30 03:56:25;;;;;;;18.60;14.20;;;;;;;-145.41;100.00;58600.66;5026744;28;20030;-82
2021/06/30 03:58:55;;;;;;;13.05;10.23;;;;;;;-145.41;100.00;58600.66;5042090;28;20502;-81
2021/06/30 04:01:21;;;;;;;17.90;13.43;;;;;;;-145.41;100.00;58600.66;5043280;28;20566;-82
2021/06/30 04:03:51;;;;;;;16.08;12.93;;;;;;;-145.41;100.00;58600.66;5041917;28;20046;-82
2021/06/30 04:06:17;;;;;;;16.65;13.98;;;;;;;-145.41;100.00;58600.66;5027036;28;20037;-82
2021/06/30 04:08:42;;;;;;;20.85;14.80;;;;;;;-145.41;100.00;58600.66;5041593;28;20108;-82
2021/06/30 04:11:08;;;;;;;13.75;11.35;;;;;;;-145.41;100.00;58600.66;5027904;28;20033;-82
2021/06/30 04:13:33;;;;;;;16.65;13.27;;;;;;;-145.41;100.00;58600.66;5027456;28;20069;-82
2021/06/30 04:15:58;;;;;;;14.00;11.95;;;;;;;-145.41;100.00;58600.66;5027208;28;20026;-82
2021/06/30 04:18:24;;;;;;;16.27;12.82;;;;;;;-145.41;100.00;58600.66;5029660;28;20049;-82
2021/06/30 04:20:49;;;;;;;13.35;9.23;;;;;;;-145.41;100.00;58600.66;5039186;28;20511;-81
2021/06/30 04:23:14;;;;;;;16.48;12.07;;;;;;;-145.41;100.00;58600.66;5027597;28;20477;-81
2021/06/30 04:25:40;;;;;;;28.70;11.40;;;;;;;-145.41;100.00;58600.66;5024849;28;20515;-81
2021/06/30 04:28:06;;;;;;;17.67;10.43;;;;;;;-145.41;100.00;58600.66;5027605;28;20044;-80
2021/06/30 04:30:31;;;;;;;24.20;18.60;;;;;;;-145.41;100.00;58600.66;5026947;28;20048;-80
2021/06/30 04:32:57;;;;;;;22.25;16.75;;;;;;;-145.41;100.00;58600.66;5041624;28;20042;-81
2021/06/30 04:35:22;;;;;;;21.45;14.40;;;;;;;-145.41;100.00;58600.66;5028112;28;20060;-81
2021/06/30 04:37:48;;;;;;;13.77;10.57;;;;;;;-145.41;100.00;58600.66;5038723;28;20049;-81
2021/06/30 04:40:13;;;;;;;17.50;14.15;;;;;;;-145.41;100.00;58600.66;5026678;28;20479;-81
2021/06/30 04:42:39;;;;;;;15.95;11.23;;;;;;;-145.41;100.00;58600.66;5023788;28;20084;-81
2021/06/30 04:45:05;;;;;;;13.52;11.85;;;;;;;-145.41;100.00;58600.66;5027959;28;20043;-82
2021/06/30 04:47:30;;;;;;;15.73;10.93;;;;;;;-145.41;100.00;58600.66;5023445;28;20107;-82
2021/06/30 04:49:55;;;;;;;16.77;11.57;;;;;;;-145.41;100.00;58600.66;5027257;28;20193;-81
2021/06/30 04:52:21;;;;;;;13.15;9.80;;;;;;;-145.41;100.00;58600.66;5038439;28;20721;-82
2021/06/30 04:54:46;;;;;;;12.60;9.60;;;;;;;-145.41;100.00;58600.66;5025651;28;20038;-82
2021/06/30 04:57:12;;;;;;;18.27;13.75;;;;;;;-145.41;100.00;58600.66;5026362;28;20042;-82
2021/06/30 04:59:37;;;;;;;14.32;10.15;;;;;;;-145.41;100.00;58600.66;5024974;28;20037;-81
2021/06/30 05:02:02;;;;;;;13.68;11.27;;;;;;;-145.41;100.00;58600.66;5027625;28;20052;-82
2021/06/30 05:04:28;;;;;;;13.55;10.45;;;;;;;-145.41;100.00;58600.66;5040006;28;20301;-82
2021/06/30 05:06:53;;;;;;;16.08;12.18;;;;;;;-145.41;100.00;58600.66;5028200;28;20778;-82
2021/06/30 05:09:18;;;;;;;16.23;12.35;;;;;;;-145.41;100.00;58600.66;5038398;28;20060;-82
2021/06/30 05:11:44;;;;;;;11.52;9.85;;;;;;;-145.41;100.00;58600.66;5026821;28;20029;-82
2021/06/30 05:14:09;;;;;;;15.85;13.00;;;;;;;-145.41;100.00;58600.66;5023997;28;20057;-83
2021/06/30 05:16:35;;;;;;;15.93;11.52;;;;;;;-145.41;100.00;58600.66;5043905;28;20037;-82
2021/06/30 05:19:00;;;;;;;12.82;10.43;;;;;;;-145.41;100.00;58600.66;5006077;28;20033;-82
2021/06/30 05:21:25;;;;;;;13.70;9.77;;;;;;;-145.41;100.00;58600.66;5043391;28;20041;-82
2021/06/30 05:23:51;;;;;;;11.98;10.05;;;;;;;-145.41;100.00;58600.66;5023789;28;20381;-83
2021/06/30 05:26:16;;;;;;;12.38;11.10;;;;;;;-145.41;100.00;58600.66;5025759;28;20037;-82
2021/06/30 05:28:41;;;;;;;17.67;13.00;;;;;;;-145.41;100.00;58600.66;5039155;28;20148;-81
2021/06/30 05:31:07;;;;;;;11.30;10.10;;;;;;;-145.41;100.00;58600.66;5010897;28;20059;-83
2021/06/30 05:33:32;;;;;;;10.88;9.68;;;;;;;-145.41;100.00;58600.66;5037724;28;20046;-81
2021/06/30 05:35:57;;;;;;;13.13;8.25;;;;;;;-145.41;100.00;58600.66;5036774;28;20049;-82
2021/06/30 05:38:23;;;;;;;10.80;7.78;;;;;;;-145.41;100.00;58600.66;5040117;28;20061;-83
2021/06/30 05:40:50;;;;;;;13.55;10.68;;;;;;;-145.41;100.00;58600.66;5043760;28;20503;-81
2021/06/30 05:43:15;;;;;;;16.17;11.45;;;;;;;-145.41;100.00;58600.66;5026852;28;20057;-83
2021/06/30 05:45:41;;;;;;;11.10;9.40;;;;;;;-145.41;100.00;58600.66;5027467;28;20487;-81
2021/06/30 05:48:07;;;;;;;14.48;10.55;;;;;;;-145.41;100.00;58600.66;5024743;28;20030;-82
2021/06/30 05:50:33;;;;;;;10.68;9.25;;;;;;;-145.41;100.00;58600.66;5024921;28;20068;-81
2021/06/30 05:52:58;;;;;;;13.75;11.52;;;;;;;-145.41;100.00;58600.66;5022297;28;20044;-82
2021/06/30 05:55:23;;;;;;;15.25;10.32;;;;;;;-145.41;100.00;58600.66;5024451;28;20038;-82
2021/06/30 05:57:49;;;;;;;10.32;7.15;;;;;;;-145.41;100.00;58600.66;5025136;28;20042;-82
2021/06/30 06:00:19;;;;;;;12.30;9.27;;;;;;;-145.41;100.00;58600.66;5026582;28;20041;-82
2021/06/30 06:02:45;;;;;;;15.95;11.60;;;;;;;-145.41;100.00;58600.66;5024088;28;20033;-82
2021/06/30 06:05:10;;;;;;;12.27;10.32;;;;;;;-145.41;100.00;58600.66;5031722;28;20060;-82
2021/06/30 06:07:36;;;;;;;15.77;9.35;;;;;;;-145.41;100.00;58600.66;5042582;28;20038;-81
2021/06/30 06:10:03;;;;;;;16.20;10.05;;;;;;;-145.41;100.00;58600.66;5024765;28;20037;-82
2021/06/30 06:12:28;;;;;;;16.05;11.98;;;;;;;-145.41;100.00;58600.66;5041463;28;20403;-82
2021/06/30 06:14:54;;;;;;;12.77;9.57;;;;;;;-145.41;100.00;58600.66;5021791;28;20033;-82
2021/06/30 06:17:20;;;;;;;17.33;11.80;;;;;;;-145.41;100.00;58600.66;5027234;28;20041;-82
2021/06/30 06:19:45;;;;;;;18.27;14.25;;;;;;;-145.41;100.00;58600.66;5025499;28;20297;-82
2021/06/30 06:22:10;;;;;;;14.00;10.50;;;;;;;-145.41;100.00;58600.66;5025577;28;20046;-83
2021/06/30 06:24:36;;;;;;;14.15;9.43;;;;;;;-145.41;100.00;58600.66;5042136;28;20041;-82
2021/06/30 06:27:02;;;;;;;11.95;9.65;;;;;;;-145.41;100.00;58600.66;5024282;28;20037;-82
2021/06/30 06:29:28;;;;;;;12.82;10.13;;;;;;;-145.41;100.00;58600.66;5040788;28;20050;-82
2021/06/30 06:31:55;;;;;;;20.05;11.35;;;;;;;-145.41;100.00;58600.66;5022131;28;20065;-81
2021/06/30 06:34:20;;;;;;;12.57;10.27;;;;;;;-145.41;100.00;58600.66;5025193;28;20320;-82
2021/06/30 06:36:50;;;;;;;19.25;10.55;;;;;;;-145.41;100.00;58600.66;5021158;28;20117;-82
2021/06/30 06:39:16;;;;;;;19.02;12.48;;;;;;;-145.41;100.00;58600.66;5025917;28;20403;-82
2021/06/30 06:41:42;;;;;;;15.45;10.45;;;;;;;-145.41;100.00;58600.66;5025168;28;20117;-82
2021/06/30 06:44:08;;;;;;;11.82;10.32;;;;;;;-145.41;100.00;58600.66;5023468;28;20061;-81
2021/06/30 06:46:34;;;;;;;20.48;14.30;;;;;;;-145.41;100.00;58600.66;5042075;28;20128;-82
2021/06/30 06:48:59;;;;;;;16.48;11.93;;;;;;;-145.41;100.00;58600.66;5040007;28;20058;-82
2021/06/30 06:51:26;;;;;;;13.35;11.35;;;;;;;-145.41;100.00;58600.66;5040829;28;20547;-83
2021/06/30 06:53:51;;;;;;;13.88;12.02;;;;;;;-145.41;100.00;58600.66;5038317;28;20045;-83
2021/06/30 06:56:19;;;;;;;12.75;9.48;;;;;;;-145.41;100.00;58600.66;5024864;28;20037;-84
2021/06/30 06:58:45;;;;;;;14.15;11.65;;;;;;;-145.41;100.00;58600.66;5025446;28;20029;-82
2021/06/30 07:01:11;;;;;;;12.55;9.02;;;;;;;-145.41;100.00;58600.66;5021959;28;20349;-82
2021/06/30 07:03:36;;;;;;;15.82;11.93;;;;;;;-145.41;100.00;58600.66;5026039;28;20626;-82
2021/06/30 07:06:01;;;;;;;16.65;9.63;;;;;;;-145.41;100.00;58600.66;5028073;28;20084;-82
2021/06/30 07:08:27;;;;;;;14.55;11.07;;;;;;;-145.41;100.00;58600.66;5043015;28;20060;-82
2021/06/30 07:10:53;;;;;;;15.30;10.90;;;;;;;-145.41;100.00;58600.66;5030435;28;20052;-81
2021/06/30 07:13:18;;;;;;;11.05;8.18;;;;;;;-145.41;100.00;58600.66;5041097;28;20403;-82
2021/06/30 07:15:43;;;;;;;17.17;11.73;;;;;;;-145.41;100.00;58600.66;5029180;28;20044;-81
2021/06/30 07:18:14;;;;;;;13.85;10.93;;;;;;;-145.41;100.00;58600.66;5027104;28;20076;-82
2021/06/30 07:20:39;;;;;;;14.73;10.40;;;;;;;-145.41;100.00;58600.66;5028567;28;20080;-82
2021/06/30 07:23:04;;;;;;;12.13;8.73;;;;;;;-145.41;100.00;58600.66;5030569;28;20037;-82
2021/06/30 07:25:30;;;;;;;13.82;8.80;;;;;;;-145.41;100.00;58600.66;5026930;28;20036;-83
2021/06/30 07:27:55;;;;;;;9.55;8.48;;;;;;;-145.41;100.00;58600.66;5028937;28;20456;-82
2021/06/30 07:30:20;;;;;;;12.23;9.35;;;;;;;-145.41;100.00;58600.66;5041317;28;20038;-82
2021/06/30 07:32:46;;;;;;;12.23;9.95;;;;;;;-145.41;100.00;58600.66;5031188;28;20053;-82
2021/06/30 07:35:14;;;;;;;12.75;10.50;;;;;;;-145.41;100.00;58600.66;5027478;28;20052;-82
2021/06/30 07:37:41;;;;;;;12.25;8.90;;;;;;;-145.41;100.00;58600.66;5026675;28;20512;-81
2021/06/30 07:40:07;;;;;;;19.17;10.38;;;;;;;-145.41;100.00;58600.66;5044358;28;20029;-81
2021/06/30 07:42:33;;;;;;;14.48;10.15;;;;;;;-145.41;100.00;58600.66;5007315;28;20509;-82
2021/06/30 07:44:58;;;;;;;11.80;8.77;;;;;;;-145.41;100.00;58600.66;5044185;28;20132;-82
2021/06/30 07:47:23;;;;;;;11.40;8.48;;;;;;;-145.41;100.00;58600.66;5025532;28;20045;-82
2021/06/30 07:49:49;;;;;;;9.02;7.88;;;;;;;-145.41;100.00;58600.66;5028265;28;20041;-83
2021/06/30 07:52:14;;;;;;;15.90;10.68;;;;;;;-145.41;100.00;58600.66;5041357;28;20034;-82
2021/06/30 07:54:39;;;;;;;14.80;12.00;;;;;;;-145.41;100.00;58600.66;5028063;28;20107;-82
2021/06/30 07:57:05;;;;;;;13.77;9.98;;;;;;;-145.41;100.00;58600.66;5029283;28;20033;-82
2021/06/30 07:59:30;;;;;;;23.20;17.52;;;;;;;-145.41;100.00;58600.66;5029601;28;20050;-82
2021/06/30 08:01:55;;;;;;;18.75;11.93;;;;;;;-145.41;100.00;58600.66;5026257;28;20029;-82
2021/06/30 08:04:21;;;;;;;14.15;10.02;;;;;;;-145.41;100.00;58600.66;5035484;28;20041;-83
2021/06/30 08:06:46;;;;;;;11.50;9.50;;;;;;;-145.41;100.00;58600.66;5006075;28;20041;-81
2021/06/30 08:09:11;;;;;;;14.30;8.35;;;;;;;-145.41;100.00;58600.66;5034675;28;20041;-82
2021/06/30 08:11:37;;;;;;;9.15;7.60;;;;;;;-145.41;100.00;58600.66;5025214;28;20467;-83
2021/06/30 08:14:02;;;;;;;17.13;10.95;;;;;;;-145.41;100.00;58600.66;5028598;28;20388;-82
2021/06/30 08:16:28;;;;;;;17.65;9.38;;;;;;;-145.41;100.00;58600.66;5043143;28;20049;-82
2021/06/30 08:18:53;;;;;;;20.67;9.88;;;;;;;-145.41;100.00;58600.66;5026822;28;20040;-82
2021/06/30 08:21:20;;;;;;;23.20;11.85;;;;;;;-145.41;100.00;58600.66;5028262;28;20041;-81
2021/06/30 08:23:46;;;;;;;14.18;9.38;;;;;;;-145.41;100.00;58600.66;5040064;28;20456;-82
2021/06/30 08:26:12;;;;;;;36.90;11.50;;;;;;;-145.41;100.00;58600.66;5027626;28;20134;-81
2021/06/30 08:28:38;;;;;;;9.90;6.50;;;;;;;-145.41;100.00;58600.66;5026375;28;20073;-82
2021/06/30 08:31:04;;;;;;;10.35;7.40;;;;;;;-145.41;100.00;58600.66;5042603;28;20095;-81
2021/06/30 08:33:29;;;;;;;13.02;7.75;;;;;;;-145.41;100.00;58600.66;5040720;28;20042;-82
2021/06/30 08:35:55;;;;;;;13.80;9.38;;;;;;;-145.41;100.00;58600.66;5027279;28;20052;-81
2021/06/30 08:38:21;;;;;;;18.83;12.57;;;;;;;-145.41;100.00;58600.66;5035564;28;20041;-81
2021/06/30 08:40:47;;;;;;;14.75;9.55;;;;;;;-145.41;100.00;58600.66;5028509;28;20021;-81
2021/06/30 08:43:14;;;;;;;16.67;11.25;;;;;;;-145.41;100.00;58600.66;5041404;28;20412;-81
2021/06/30 08:45:41;;;;;;;14.75;7.60;;;;;;;-145.41;100.00;58600.66;5024599;28;20120;-81
2021/06/30 08:48:08;;;;;;;12.57;9.23;;;;;;;-145.41;100.00;58600.66;5034268;28;20026;-81
2021/06/30 08:50:42;;;;;;;11.38;5.85;;;;;;;-145.41;100.00;58600.66;5028798;28;20041;-80
2021/06/30 08:53:10;;;;;;;10.32;7.93;;;;;;;-145.41;100.00;58600.66;5040800;28;20447;-82
2021/06/30 08:55:46;;;;;;;9.25;8.13;;;;;;;-145.41;100.00;58600.66;5017094;28;20049;-83
2021/06/30 08:58:13;;;;;;;7.95;6.63;;;;;;;-145.41;100.00;58600.66;5041627;28;20087;-84
2021/06/30 09:00:40;;;;;;;11.40;9.68;;;;;;;-145.41;100.00;58600.66;5025968;28;20435;-83
2021/06/30 09:03:09;;;;;;;11.57;8.40;;;;;;;-145.41;100.00;58600.66;5025631;28;20071;-81
2021/06/30 09:05:39;;;;;;;11.85;7.95;;;;;;;-145.41;100.00;58600.66;5043710;28;20037;-82
2021/06/30 09:08:04;;;;;;;6.95;5.93;;;;;;;-145.41;100.00;58600.66;5039331;28;20038;-83
2021/06/30 09:10:37;;;;;;;8.70;7.00;;;;;;;-145.41;100.00;58600.66;5026479;28;20041;-82
2021/06/30 09:13:17;;;;;;;7.70;6.25;;;;;;;-145.41;100.00;58600.66;5026893;28;20056;-83
2021/06/30 09:15:43;;;;;;;9.40;7.93;;;;;;;-145.41;100.00;58600.66;5023907;28;20101;-83
2021/06/30 09:18:29;;;;;;;8.40;6.68;;;;;;;-145.41;100.00;58600.66;5026755;28;20072;-83
2021/06/30 09:21:24;;;;;;;10.18;8.07;;;;;;;-145.41;100.00;58600.66;5026083;28;20061;-83
2021/06/30 09:24:16;;;;;;;11.38;7.78;;;;;;;-145.41;100.00;58600.66;5028689;28;20510;-83
2021/06/30 09:26:53;;;;;;;6.28;5.65;;;;;;;-145.41;100.00;58600.66;5024180;28;20516;-83
2021/06/30 09:29:21;;;;;;;8.07;6.57;;;;;;;-145.41;100.00;58600.66;5025535;28;20550;-84
2021/06/30 09:31:48;;;;;;;7.55;6.05;;;;;;;-145.41;100.00;58600.66;5027511;28;20065;-82
2021/06/30 09:34:22;;;;;;;7.00;5.60;;;;;;;-145.41;100.00;58600.66;5038858;28;20036;-82
2021/06/30 09:36:54;;;;;;;6.95;4.75;;;;;;;-145.41;100.00;58600.66;5024286;28;20120;-83
2021/06/30 09:39:21;;;;;;;8.13;5.78;;;;;;;-145.41;100.00;58600.66;5024164;28;20057;-83
2021/06/30 09:41:47;;;;;;;8.23;5.22;;;;;;;-145.41;100.00;58600.66;5023759;28;20060;-82
2021/06/30 09:44:17;;;;;;;8.25;5.75;;;;;;;-145.41;100.00;58600.66;5024956;28;20040;-83
2021/06/30 09:46:43;;;;;;;9.70;6.78;;;;;;;-145.41;100.00;58600.66;5022693;28;20096;-82
2021/06/30 09:49:12;;;;;;;7.70;6.18;;;;;;;-145.41;100.00;58600.66;5025958;28;20105;-82
2021/06/30 09:51:39;;;;;;;5.97;4.80;;;;;;;-145.41;100.00;58600.66;5022239;28;20507;-83
2021/06/30 09:54:07;;;;;;;7.85;5.90;;;;;;;-145.41;100.00;58600.66;5027439;28;20080;-82
2021/06/30 09:56:38;;;;;;;6.18;5.05;;;;;;;-145.41;100.00;58600.66;5037887;28;20124;-82
2021/06/30 09:59:26;;;;;;;9.07;6.72;;;;;;;-145.41;100.00;58600.66;5026735;28;20041;-82
2021/06/30 10:02:03;;;;;;;7.20;5.28;;;;;;;-145.41;100.00;58600.66;5040121;28;20034;-82
2021/06/30 10:04:31;;;;;;;6.50;4.47;;;;;;;-145.41;100.00;58600.66;5024272;28;20480;-82
2021/06/30 10:07:05;;;;;;;8.20;5.32;;;;;;;-145.41;100.00;58600.66;5022932;28;20061;-82
2021/06/30 10:09:31;;;;;;;5.90;4.68;;;;;;;-145.41;100.00;58600.66;5024854;28;20037;-82
2021/06/30 10:12:03;;;;;;;4.80;3.55;;;;;;;-145.41;100.00;58600.66;5027535;28;20045;-82
2021/06/30 10:14:29;;;;;;;5.45;4.20;;;;;;;-145.41;100.00;58600.66;5025908;28;20033;-81
2021/06/30 10:16:55;;;;;;;6.20;3.83;;;;;;;-145.41;100.00;58600.66;5028643;28;20028;-83
2021/06/30 10:19:21;;;;;;;5.60;3.60;;;;;;;-145.41;100.00;58600.66;5024937;28;20502;-82
2021/06/30 10:21:46;;;;;;;6.43;3.85;;;;;;;-145.41;100.00;58600.66;5038428;28;20095;-82
2021/06/30 10:24:17;;;;;;;7.53;3.15;;;;;;;-145.41;100.00;58600.66;5027948;28;20043;-83
2021/06/30 10:26:43;;;;;;;4.13;3.20;;;;;;;-145.41;100.00;58600.66;5039220;28;20034;-83
2021/06/30 10:29:09;;;;;;;5.78;3.05;;;;;;;-145.41;100.00;58600.66;5027694;28;20044;-82
2021/06/30 10:31:36;;;;;;;5.00;3.60;;;;;;;-145.41;100.00;58600.66;5024479;28;20038;-82
2021/06/30 10:34:07;;;;;;;4.28;2.85;;;;;;;-145.41;100.00;58600.66;5041780;28;20087;-83
2021/06/30 10:36:56;;;;;;;4.82;3.40;;;;;;;-145.41;100.00;58600.66;5041869;28;20045;-82
2021/06/30 10:39:34;;;;;;;3.30;2.70;;;;;;;-145.41;100.00;58600.66;5023095;28;20042;-82
2021/06/30 10:42:15;;;;;;;4.80;2.63;;;;;;;-145.41;100.00;58600.66;5024555;28;20030;-83
2021/06/30 10:44:55;;;;;;;5.25;2.95;;;;;;;-145.41;100.00;58600.66;5039872;28;20033;-82
2021/06/30 10:47:39;;;;;;;5.20;3.00;;;;;;;-145.41;100.00;58600.66;5026222;28;20078;-83
2021/06/30 10:50:17;;;;;;;3.92;2.88;;;;;;;-145.41;100.00;58600.66;5040972;28;20065;-82
2021/06/30 10:52:50;;;;;;;4.40;3.00;;;;;;;-145.41;100.00;58600.66;5040794;28;20034;-83
2021/06/30 10:55:37;;;;;;;5.00;2.90;;;;;;;-145.41;100.00;58600.66;5024027;28;20041;-82
2021/06/30 10:58:15;;;;;;;4.88;2.90;;;;;;;-145.41;100.00;58600.66;5026958;28;20432;-82
2021/06/30 11:00:58;;;;;;;5.38;2.70;;;;;;;-145.41;100.00;58600.66;5033634;28;20104;-83
2021/06/30 11:03:26;;;;;;;3.70;2.55;;;;;;;-145.41;100.00;58600.66;5041881;28;20042;-83